Time;durP1;ratioP1;P1;durP2;ratioP2;P2;SDS_P1;SDS_P2;PMS_P1;PMS_P2;Temp;Humidity;BMP_temperature;BMP_pressure;BME280_temperature;BME280_humidity;BME280_pressure;Samples;Min_cycle;Max_cycle;Signal;HPM_P1;HPM_P2
2023/11/15 00:01:38;;;;;;;15.80;6.40;;;;;;;10.87;100.00;98849.27;112653;1239;23578;-77
2023/11/15 00:04:12;;;;;;;12.40;6.00;;;;;;;10.86;100.00;98848.80;112626;1239;23781;-76
2023/11/15 00:06:44;;;;;;;10.50;5.40;;;;;;;10.87;100.00;98843.38;111911;1246;21957;-76
2023/11/15 00:09:18;;;;;;;12.00;5.70;;;;;;;10.87;100.00;98844.55;111999;1244;22269;-75
2023/11/15 00:11:52;;;;;;;11.80;6.20;;;;;;;10.89;100.00;98843.25;111972;1244;23775;-76
2023/11/15 00:14:26;;;;;;;13.30;5.80;;;;;;;10.89;100.00;98841.48;112317;1244;21955;-77
2023/11/15 00:16:59;;;;;;;9.80;5.10;;;;;;;10.91;100.00;98834.59;112330;1243;23710;-76
2023/11/15 00:19:34;;;;;;;11.60;4.90;;;;;;;10.91;100.00;98832.67;111918;1244;23638;-75
2023/11/15 00:22:06;;;;;;;9.00;5.10;;;;;;;10.91;100.00;98828.45;112458;1244;21945;-78
2023/11/15 00:24:45;;;;;;;9.30;4.90;;;;;;;10.92;100.00;98827.20;111712;1245;23814;-76
2023/11/15 00:27:20;;;;;;;9.80;4.90;;;;;;;10.91;100.00;98825.89;112005;1241;21956;-77
2023/11/15 00:29:56;;;;;;;7.20;4.20;;;;;;;10.92;100.00;98825.46;111663;1246;22424;-76
2023/11/15 00:32:25;;;;;;;10.70;5.10;;;;;;;10.94;100.00;98827.30;111871;1246;22285;-75
2023/11/15 00:34:57;;;;;;;8.90;4.10;;;;;;;10.94;100.00;98828.80;111861;1246;23599;-77
2023/11/15 00:37:31;;;;;;;8.30;4.10;;;;;;;10.95;100.00;98830.99;111537;1249;23626;-77
2023/11/15 00:40:14;;;;;;;11.80;4.90;;;;;;;10.94;100.00;98832.12;111517;1250;23697;-78
2023/11/15 00:42:45;;;;;;;7.60;3.60;;;;;;;10.93;100.00;98833.41;111799;1244;21962;-77
2023/11/15 00:45:23;;;;;;;9.00;4.50;;;;;;;10.91;100.00;98833.02;112097;1244;23578;-76
2023/11/15 00:47:58;;;;;;;8.80;4.40;;;;;;;10.91;100.00;98833.55;112221;1239;23129;-76
2023/11/15 00:50:28;;;;;;;8.50;4.40;;;;;;;10.91;100.00;98831.61;112920;1239;21954;-77
2023/11/15 00:53:01;;;;;;;7.40;4.40;;;;;;;10.94;100.00;98834.23;112068;1242;23018;-76
2023/11/15 00:55:36;;;;;;;8.70;4.70;;;;;;;10.92;100.00;98835.21;111737;1246;21976;-77
2023/11/15 00:58:14;;;;;;;7.30;4.10;;;;;;;10.91;100.00;98833.00;111879;1246;22104;-77
2023/11/15 01:01:04;;;;;;;11.70;4.80;;;;;;;10.90;100.00;98835.16;111978;1246;21985;-77
2023/11/15 01:03:55;;;;;;;9.80;4.60;;;;;;;10.91;100.00;98834.92;111723;1246;23094;-77
2023/11/15 01:06:26;;;;;;;11.20;5.20;;;;;;;10.92;100.00;98834.86;112102;1244;21958;-77
2023/11/15 01:09:07;;;;;;;10.20;5.10;;;;;;;10.93;100.00;98833.41;111887;1246;23691;-77
2023/11/15 01:11:41;;;;;;;11.30;4.80;;;;;;;10.93;100.00;98833.90;111655;1246;21964;-76
2023/11/15 01:14:11;;;;;;;15.90;4.60;;;;;;;10.93;100.00;98831.32;112239;1240;21955;-76
2023/11/15 01:16:40;;;;;;;16.50;6.00;;;;;;;10.92;100.00;98835.20;112775;1241;22325;-77
2023/11/15 01:19:16;;;;;;;12.40;4.50;;;;;;;10.89;100.00;98832.77;113345;1234;21981;-76
2023/11/15 01:21:52;;;;;;;11.90;5.40;;;;;;;10.84;100.00;98835.21;113176;1234;21943;-77
2023/11/15 01:24:41;;;;;;;10.90;5.80;;;;;;;10.80;100.00;98834.91;113326;1234;23458;-77
2023/11/15 01:27:11;;;;;;;11.60;4.70;;;;;;;10.75;100.00;98832.61;113187;1234;21958;-76
2023/11/15 01:29:44;;;;;;;12.10;5.30;;;;;;;10.73;100.00;98830.85;112600;1241;21986;-77
2023/11/15 01:32:34;;;;;;;11.00;5.00;;;;;;;10.70;100.00;98830.35;112612;1240;22722;-77
2023/11/15 01:35:17;;;;;;;14.00;5.20;;;;;;;10.69;100.00;98828.48;112555;1241;22024;-79
2023/11/15 01:37:52;;;;;;;9.70;4.80;;;;;;;10.68;100.00;98828.91;112702;1240;22258;-76
2023/11/15 01:40:25;;;;;;;10.50;4.90;;;;;;;10.69;100.00;98827.23;112555;1240;22010;-76
2023/11/15 01:42:54;;;;;;;12.90;5.70;;;;;;;10.70;100.00;98825.45;111900;1246;22003;-76
2023/11/15 01:45:30;;;;;;;12.40;5.40;;;;;;;10.70;100.00;98824.42;111753;1249;21993;-76
2023/11/15 01:48:00;;;;;;;11.80;5.10;;;;;;;10.71;100.00;98824.01;111846;1244;21971;-77
2023/11/15 01:50:30;;;;;;;11.30;5.70;;;;;;;10.71;100.00;98824.67;112152;1245;21958;-77
2023/11/15 01:53:00;;;;;;;9.40;4.40;;;;;;;10.71;100.00;98824.48;112259;1243;23101;-76
2023/11/15 01:55:30;;;;;;;9.50;4.00;;;;;;;10.71;100.00;98825.76;111378;1251;22882;-76
2023/11/15 01:58:05;;;;;;;9.50;4.40;;;;;;;10.70;100.00;98826.67;110939;1258;23103;-75
2023/11/15 02:00:45;;;;;;;9.50;5.10;;;;;;;10.70;100.00;98826.86;110740;1254;21967;-76
2023/11/15 02:03:22;;;;;;;10.40;4.20;;;;;;;10.70;100.00;98830.35;111097;1252;22001;-76
2023/11/15 02:05:57;;;;;;;12.40;4.70;;;;;;;10.69;100.00;98829.34;111443;1251;23757;-75
2023/11/15 02:08:29;;;;;;;10.60;4.20;;;;;;;10.69;100.00;98827.98;110722;1258;23771;-77
2023/11/15 02:11:05;;;;;;;9.50;4.00;;;;;;;10.70;100.00;98828.94;110610;1261;23613;-75
2023/11/15 02:13:36;;;;;;;8.70;3.90;;;;;;;10.70;100.00;98828.09;110750;1256;21994;-76
2023/11/15 02:16:06;;;;;;;7.20;3.70;;;;;;;10.69;100.00;98825.16;111210;1251;21957;-77
2023/11/15 02:18:44;;;;;;;14.20;4.30;;;;;;;10.69;100.00;98820.64;111762;1246;22174;-76
2023/11/15 02:21:13;;;;;;;10.30;4.40;;;;;;;10.71;100.00;98821.92;111967;1246;21951;-75
2023/11/15 02:23:47;;;;;;;9.40;3.90;;;;;;;10.71;100.00;98820.02;111481;1251;23597;-76
2023/11/15 02:26:19;;;;;;;8.90;2.80;;;;;;;10.72;100.00;98820.48;111180;1249;24452;-76
2023/11/15 02:28:54;;;;;;;7.70;3.70;;;;;;;10.71;100.00;98823.31;111508;1245;22423;-77
2023/11/15 02:31:29;;;;;;;8.30;2.90;;;;;;;10.71;100.00;98822.61;112204;1245;24340;-77
2023/11/15 02:33:58;;;;;;;7.90;3.10;;;;;;;10.72;100.00;98822.04;111599;1249;21976;-76
2023/11/15 02:36:33;;;;;;;8.40;2.90;;;;;;;10.73;100.00;98825.27;111769;1248;23735;-77
2023/11/15 02:39:14;;;;;;;9.40;4.00;;;;;;;10.72;100.00;98826.88;111112;1253;22039;-77
2023/11/15 02:41:46;;;;;;;8.60;3.00;;;;;;;10.74;100.00;98826.48;111266;1249;21959;-76
2023/11/15 02:44:32;;;;;;;9.10;2.90;;;;;;;10.74;100.00;98827.30;111789;1243;21982;-76
2023/11/15 02:47:09;;;;;;;6.70;3.10;;;;;;;10.73;100.00;98830.85;112292;1243;23633;-76
2023/11/15 02:49:38;;;;;;;8.00;3.10;;;;;;;10.73;100.00;98831.01;112196;1243;21958;-77
2023/11/15 02:52:11;;;;;;;8.10;2.70;;;;;;;10.74;100.00;98832.16;112158;1239;21950;-77
2023/11/15 02:54:42;;;;;;;5.70;3.00;;;;;;;10.76;100.00;98835.71;111908;1246;22012;-77
2023/11/15 02:57:21;;;;;;;4.70;2.70;;;;;;;10.76;100.00;98834.32;111395;1250;22370;-77
2023/11/15 02:59:53;;;;;;;7.90;2.90;;;;;;;10.78;100.00;98840.46;111597;1250;22736;-78
2023/11/15 03:02:25;;;;;;;4.70;2.80;;;;;;;10.78;100.00;98837.83;111541;1249;23594;-77
2023/11/15 03:05:02;;;;;;;5.80;2.50;;;;;;;10.79;100.00;98839.71;112099;1245;21971;-78
2023/11/15 03:07:43;;;;;;;5.00;2.60;;;;;;;10.78;100.00;98840.80;111958;1245;22029;-78
2023/11/15 03:10:14;;;;;;;5.50;2.40;;;;;;;10.78;100.00;98840.45;111921;1245;22241;-76
2023/11/15 03:12:53;;;;;;;4.70;2.20;;;;;;;10.80;100.00;98839.14;112474;1239;23624;-77
2023/11/15 03:15:36;;;;;;;6.30;2.70;;;;;;;10.79;100.00;98837.24;112871;1233;21952;-77
2023/11/15 03:18:09;;;;;;;5.10;2.50;;;;;;;10.77;100.00;98838.77;113244;1234;21943;-78
2023/11/15 03:20:41;;;;;;;4.70;2.30;;;;;;;10.75;100.00;98839.27;113362;1234;21949;-77
2023/11/15 03:23:13;;;;;;;5.30;2.10;;;;;;;10.73;100.00;98843.69;113532;1234;22463;-76
2023/11/15 03:25:44;;;;;;;5.20;2.00;;;;;;;10.73;100.00;98847.89;113322;1234;21922;-77
2023/11/15 03:28:19;;;;;;;5.10;2.10;;;;;;;10.73;100.00;98849.60;113265;1234;22955;-77
2023/11/15 03:30:53;;;;;;;7.60;2.30;;;;;;;10.74;100.00;98855.80;113373;1234;21970;-78
2023/11/15 03:33:24;;;;;;;4.20;1.50;;;;;;;10.75;100.00;98858.40;113337;1234;21955;-77
2023/11/15 03:36:00;;;;;;;4.80;2.20;;;;;;;10.71;100.00;98845.73;113234;1233;23711;-77
2023/11/15 03:38:44;;;;;;;3.80;1.70;;;;;;;10.73;100.00;98855.21;113367;1234;23685;-77
2023/11/15 03:41:17;;;;;;;3.80;2.10;;;;;;;10.70;100.00;98853.48;113083;1234;22495;-77
2023/11/15 03:43:52;;;;;;;3.70;1.60;;;;;;;10.70;100.00;98856.27;112677;1239;22686;-78
2023/11/15 03:46:24;;;;;;;6.90;1.90;;;;;;;10.70;100.00;98856.23;112810;1239;21976;-78
2023/11/15 03:48:56;;;;;;;3.10;1.60;;;;;;;10.69;100.00;98861.54;112743;1239;21941;-77
2023/11/15 03:51:27;;;;;;;4.20;1.50;;;;;;;10.69;100.00;98861.35;112868;1239;21952;-78
2023/11/15 03:54:05;;;;;;;5.00;2.20;;;;;;;10.68;100.00;98864.88;112699;1239;21942;-77
2023/11/15 03:56:39;;;;;;;3.80;1.70;;;;;;;10.66;100.00;98863.64;111964;1237;23055;-77
2023/11/15 03:59:14;;;;;;;4.10;1.60;;;;;;;10.67;100.00;98871.07;111570;1250;22746;-78
2023/11/15 04:01:49;;;;;;;4.70;2.10;;;;;;;10.66;100.00;98873.92;111709;1245;22721;-76
2023/11/15 04:04:29;;;;;;;5.10;2.20;;;;;;;10.64;100.00;98875.05;112056;1245;22434;-76
2023/11/15 04:07:06;;;;;;;3.70;1.90;;;;;;;10.63;100.00;98876.52;112231;1246;23690;-76
2023/11/15 04:09:38;;;;;;;6.50;2.90;;;;;;;10.63;100.00;98874.59;112114;1246;21964;-77
2023/11/15 04:12:25;;;;;;;4.40;2.60;;;;;;;10.61;100.00;98876.82;111899;1246;21954;-76
2023/11/15 04:14:54;;;;;;;6.50;3.60;;;;;;;10.61;100.00;98873.86;112252;1241;23044;-76
2023/11/15 04:17:32;;;;;;;4.40;2.90;;;;;;;10.62;100.00;98878.64;112968;1233;23021;-77
2023/11/15 04:20:14;;;;;;;3.50;2.30;;;;;;;10.62;100.00;98880.21;113421;1233;21937;-77
2023/11/15 04:22:43;;;;;;;3.50;1.70;;;;;;;10.60;100.00;98879.48;112929;1239;23846;-77
2023/11/15 04:25:15;;;;;;;5.30;2.30;;;;;;;10.61;100.00;98881.19;111864;1247;21972;-78
2023/11/15 04:27:46;;;;;;;3.90;2.20;;;;;;;10.62;100.00;98883.74;111228;1253;21972;-77
2023/11/15 04:30:34;;;;;;;7.40;3.30;;;;;;;10.59;100.00;98884.61;111224;1253;22737;-76
2023/11/15 04:33:08;;;;;;;4.10;2.40;;;;;;;10.59;100.00;98885.80;111244;1253;22056;-76
2023/11/15 04:35:45;;;;;;;4.70;2.00;;;;;;;10.61;100.00;98890.59;111215;1253;23038;-77
2023/11/15 04:38:16;;;;;;;4.50;2.80;;;;;;;10.60;100.00;98892.38;111172;1253;21964;-76
2023/11/15 04:40:52;;;;;;;;;;;;;;;10.57;100.00;98892.38;110939;1253;21970;-77
2023/11/15 04:43:33;;;;;;;4.80;2.30;;;;;;;10.44;100.00;98895.58;111526;1246;22442;-77
2023/11/15 04:46:11;;;;;;;5.60;2.60;;;;;;;10.43;100.00;98898.11;112105;1241;21947;-77
2023/11/15 04:48:42;;;;;;;8.30;6.30;;;;;;;10.44;100.00;98899.08;112144;1246;21962;-76
2023/11/15 04:51:13;;;;;;;28.50;25.40;;;;;;;10.44;100.00;98899.24;111588;1250;21965;-76
2023/11/15 04:53:44;;;;;;;5.00;3.50;;;;;;;10.45;100.00;98901.92;111633;1247;23044;-79
2023/11/15 04:56:13;;;;;;;4.80;2.40;;;;;;;10.48;100.00;98901.77;111381;1249;21972;-81
2023/11/15 04:58:46;;;;;;;5.40;2.70;;;;;;;10.50;100.00;98904.42;111805;1243;21949;-78
2023/11/15 05:01:24;;;;;;;5.40;2.90;;;;;;;10.53;100.00;98907.02;111673;1247;21976;-79
2023/11/15 05:03:53;;;;;;;4.30;2.60;;;;;;;10.56;100.00;98907.58;111806;1248;22027;-76
2023/11/15 05:06:36;;;;;;;4.40;2.40;;;;;;;10.58;100.00;98907.11;111869;1244;23044;-77
2023/11/15 05:09:09;;;;;;;4.70;3.00;;;;;;;10.57;100.00;98909.95;112376;1239;22740;-77
2023/11/15 05:11:41;;;;;;;;;;;;;;;10.57;100.00;98913.94;112093;1246;23766;-77
2023/11/15 05:14:13;;;;;;;4.10;2.70;;;;;;;10.46;100.00;98917.56;112159;1242;23017;-77
2023/11/15 05:17:09;;;;;;;4.20;2.70;;;;;;;10.43;100.00;98923.62;112112;1246;23016;-77
2023/11/15 05:19:38;;;;;;;4.20;2.80;;;;;;;10.44;100.00;98924.64;112420;1241;22078;-77
2023/11/15 05:22:16;;;;;;;5.40;2.60;;;;;;;10.44;100.00;98926.70;112145;1240;22110;-77
2023/11/15 05:24:49;;;;;;;7.00;3.60;;;;;;;10.43;100.00;98929.04;111551;1249;22064;-77
2023/11/15 05:27:23;;;;;;;4.20;3.20;;;;;;;10.43;100.00;98932.36;111609;1249;21959;-76
2023/11/15 05:29:54;;;;;;;5.10;3.30;;;;;;;10.43;100.00;98935.27;111973;1243;22983;-77
2023/11/15 05:32:25;;;;;;;7.90;4.70;;;;;;;10.41;100.00;98939.75;112212;1243;22991;-76
2023/11/15 05:35:00;;;;;;;10.20;5.30;;;;;;;10.40;100.00;98941.23;112344;1240;22314;-76
2023/11/15 05:37:38;;;;;;;9.90;5.00;;;;;;;10.37;100.00;98944.34;112372;1243;22048;-76
2023/11/15 05:40:13;;;;;;;9.70;5.20;;;;;;;10.36;100.00;98951.17;111738;1243;22144;-77
2023/11/15 05:42:44;;;;;;;11.90;5.50;;;;;;;10.35;100.00;98957.16;112388;1239;22725;-77
2023/11/15 05:45:20;;;;;;;9.20;5.70;;;;;;;10.33;100.00;98960.08;112355;1239;24390;-76
2023/11/15 05:47:59;;;;;;;7.70;4.50;;;;;;;10.33;100.00;98960.92;112657;1233;23015;-76
2023/11/15 05:50:36;;;;;;;5.10;4.30;;;;;;;10.31;100.00;98960.18;112169;1241;21960;-77
2023/11/15 05:53:10;;;;;;;14.60;4.60;;;;;;;10.28;100.00;98969.03;111273;1252;21962;-77
2023/11/15 05:55:42;;;;;;;8.00;5.40;;;;;;;10.27;100.00;98972.53;111256;1252;23029;-76
2023/11/15 05:58:24;;;;;;;5.50;3.30;;;;;;;10.29;100.00;98974.21;111470;1247;22639;-77
2023/11/15 06:01:07;;;;;;;7.20;2.90;;;;;;;10.28;100.00;98974.59;111894;1247;22977;-77
2023/11/15 06:03:40;;;;;;;3.80;3.00;;;;;;;10.26;100.00;98979.73;111884;1238;23761;-77
2023/11/15 06:06:13;;;;;;;4.70;3.10;;;;;;;10.25;100.00;98984.64;111894;1247;23114;-76
2023/11/15 06:09:24;;;;;;;5.50;3.20;;;;;;;10.25;100.00;98990.23;112110;1241;22555;-79
2023/11/15 06:12:35;;;;;;;5.70;3.10;;;;;;;10.22;100.00;98995.63;112722;1239;21951;-76
2023/11/15 06:15:11;;;;;;;4.60;3.00;;;;;;;10.24;100.00;99004.89;112610;1240;21959;-75
2023/11/15 06:17:42;;;;;;;4.40;2.90;;;;;;;10.26;100.00;99003.36;112551;1239;23074;-76
2023/11/15 06:20:35;;;;;;;4.00;3.30;;;;;;;10.26;100.00;99004.79;112608;1238;23685;-75
2023/11/15 06:23:09;;;;;;;5.40;3.50;;;;;;;10.25;100.00;99013.20;112575;1240;24100;-76
2023/11/15 06:25:58;;;;;;;9.10;3.60;;;;;;;10.25;100.00;99018.73;111870;1247;21923;-76
2023/11/15 06:28:40;;;;;;;4.00;3.30;;;;;;;10.25;100.00;99023.11;111600;1247;23042;-75
2023/11/15 06:31:25;;;;;;;4.30;3.50;;;;;;;10.24;100.00;99025.92;112093;1241;21956;-75
2023/11/15 06:33:59;;;;;;;5.60;3.90;;;;;;;10.23;100.00;99030.84;112655;1241;23699;-77
2023/11/15 06:36:34;;;;;;;10.40;4.30;;;;;;;10.23;100.00;99031.19;111947;1244;23249;-78
2023/11/15 06:39:13;;;;;;;5.80;4.20;;;;;;;10.23;100.00;99033.13;111539;1251;23739;-79
2023/11/15 06:41:54;;;;;;;6.10;4.80;;;;;;;10.22;100.00;99040.84;111466;1254;22005;-79
2023/11/15 06:44:27;;;;;;;7.00;3.90;;;;;;;10.22;100.00;99044.82;111098;1257;23595;-81
2023/11/15 06:46:59;;;;;;;5.10;4.10;;;;;;;10.22;100.00;99047.28;111120;1257;22130;-79
2023/11/15 06:49:34;;;;;;;5.90;4.80;;;;;;;10.22;100.00;99051.61;110822;1260;21973;-80
2023/11/15 06:52:09;;;;;;;6.00;4.70;;;;;;;10.25;100.00;99053.54;111023;1260;21956;-83
2023/11/15 06:54:44;;;;;;;6.90;3.90;;;;;;;10.27;100.00;99057.60;111125;1257;23664;-80
2023/11/15 06:57:19;;;;;;;7.60;4.30;;;;;;;10.27;100.00;99059.63;111361;1248;22027;-79
2023/11/15 06:59:53;;;;;;;7.20;5.10;;;;;;;10.29;100.00;99062.35;112228;1246;22039;-81
2023/11/15 07:02:26;;;;;;;6.30;5.50;;;;;;;10.31;100.00;99064.98;111960;1245;23031;-79
2023/11/15 07:04:59;;;;;;;6.50;5.30;;;;;;;10.34;100.00;99066.95;112295;1245;21959;-80
2023/11/15 07:07:33;;;;;;;5.10;4.60;;;;;;;10.27;100.00;99052.20;112660;1245;21959;-80
2023/11/15 07:10:10;;;;;;;7.50;4.40;;;;;;;10.38;100.00;99068.44;111931;1250;21960;-79
2023/11/15 07:12:48;;;;;;;8.10;4.20;;;;;;;10.42;100.00;99071.19;112022;1250;22017;-80
2023/11/15 07:15:31;;;;;;;6.80;3.90;;;;;;;10.44;100.00;99073.48;111781;1251;22242;-79
2023/11/15 07:18:06;;;;;;;6.00;4.00;;;;;;;10.47;100.00;99078.23;111517;1244;21965;-80
2023/11/15 07:20:41;;;;;;;6.50;4.00;;;;;;;10.48;100.00;99083.91;111496;1246;22761;-80
2023/11/15 07:23:17;;;;;;;5.80;3.80;;;;;;;10.52;100.00;99082.44;112416;1246;21955;-82
2023/11/15 07:25:47;;;;;;;9.80;4.40;;;;;;;10.53;100.00;99083.40;111899;1246;21957;-79
2023/11/15 07:28:28;;;;;;;7.00;5.40;;;;;;;10.55;100.00;99087.80;112365;1238;21951;-80
2023/11/15 07:31:07;;;;;;;7.70;4.80;;;;;;;10.56;100.00;99089.69;112214;1245;22343;-80
2023/11/15 07:33:48;;;;;;;7.90;4.50;;;;;;;10.58;100.00;99097.07;112493;1239;22738;-82
2023/11/15 07:36:21;;;;;;;8.00;4.80;;;;;;;10.59;100.00;99104.30;113006;1239;21984;-80
2023/11/15 07:39:05;;;;;;;7.10;5.30;;;;;;;10.59;100.00;99108.98;113140;1239;23590;-80
2023/11/15 07:41:38;;;;;;;7.80;5.40;;;;;;;10.60;100.00;99114.33;112954;1239;24411;-80
2023/11/15 07:44:15;;;;;;;7.60;5.30;;;;;;;10.65;100.00;99118.06;113027;1238;21951;-80
2023/11/15 07:46:49;;;;;;;11.10;5.90;;;;;;;10.70;100.00;99123.70;113097;1239;22578;-80
2023/11/15 07:49:24;;;;;;;6.60;4.70;;;;;;;10.73;100.00;99126.95;113054;1234;21978;-80
2023/11/15 07:51:56;;;;;;;5.10;4.50;;;;;;;10.78;100.00;99133.84;113740;1234;21949;-81
2023/11/15 07:54:33;;;;;;;6.50;5.40;;;;;;;10.81;100.00;99136.81;113229;1234;21939;-76
2023/11/15 07:57:24;;;;;;;6.00;4.70;;;;;;;10.86;100.00;99137.72;112906;1238;23974;-78
2023/11/15 07:59:52;;;;;;;10.60;7.00;;;;;;;10.92;100.00;99140.48;113166;1238;21963;-78
2023/11/15 08:02:22;;;;;;;8.60;5.20;;;;;;;10.97;100.00;99145.08;113114;1238;21938;-76
2023/11/15 08:05:07;;;;;;;8.70;4.90;;;;;;;11.02;100.00;99147.23;113034;1238;23719;-77
2023/11/15 08:07:37;;;;;;;6.50;4.90;;;;;;;11.06;100.00;99151.02;112891;1238;21974;-79
2023/11/15 08:10:23;;;;;;;7.70;4.70;;;;;;;11.10;100.00;99150.57;112899;1238;21914;-77
2023/11/15 08:12:52;;;;;;;6.10;4.40;;;;;;;11.12;100.00;99151.70;112891;1238;21979;-81
2023/11/15 08:15:28;;;;;;;9.80;5.60;;;;;;;11.12;100.00;99160.05;112981;1237;22010;-77
2023/11/15 08:18:01;;;;;;;8.30;6.90;;;;;;;11.11;100.00;99164.27;113063;1237;22403;-80
2023/11/15 08:20:43;;;;;;;;;;;;;;;;;;;;;
2023/11/15 08:23:19;;;;;;;7.60;4.90;;;;;;;11.09;100.00;99170.30;113173;1237;22992;-77
2023/11/15 08:25:53;;;;;;;6.10;4.90;;;;;;;11.10;100.00;99171.10;113115;1237;21965;-78
2023/11/15 08:28:33;;;;;;;6.50;5.20;;;;;;;11.09;100.00;99173.08;113004;1237;23720;-78
2023/11/15 08:31:04;;;;;;;8.00;4.90;;;;;;;11.08;100.00;99179.27;113010;1237;21940;-78
2023/11/15 08:33:34;;;;;;;8.60;5.50;;;;;;;11.07;100.00;99181.02;110395;1234;3671123;-76
2023/11/15 08:36:09;;;;;;;9.70;5.30;;;;;;;11.08;100.00;99179.11;113572;1234;21946;-77
2023/11/15 08:38:49;;;;;;;7.60;5.30;;;;;;;11.07;100.00;99180.36;112660;1240;21972;-78
2023/11/15 08:41:28;;;;;;;7.90;5.20;;;;;;;11.07;100.00;99185.92;112736;1240;22009;-79
2023/11/15 08:44:22;;;;;;;6.20;5.20;;;;;;;11.04;100.00;99187.52;112668;1240;23547;-76
2023/11/15 08:46:57;;;;;;;7.50;5.50;;;;;;;11.00;100.00;99190.70;112774;1239;23106;-77
2023/11/15 08:49:42;;;;;;;10.10;6.90;;;;;;;11.00;100.00;99193.68;112746;1240;23669;-78
2023/11/15 08:52:16;;;;;;;6.80;5.30;;;;;;;10.95;100.00;99195.51;112883;1240;21945;-78
2023/11/15 08:54:47;;;;;;;12.70;6.80;;;;;;;10.91;100.00;99200.96;113044;1240;21941;-78
2023/11/15 08:57:28;;;;;;;7.60;6.40;;;;;;;10.93;100.00;99202.94;113344;1234;21985;-78
2023/11/15 09:00:12;;;;;;;5.90;4.70;;;;;;;10.97;100.00;99206.54;112589;1241;23030;-76
2023/11/15 09:02:46;;;;;;;10.80;6.50;;;;;;;11.00;100.00;99215.78;112764;1242;21946;-78
2023/11/15 09:05:19;;;;;;;8.20;5.90;;;;;;;11.01;100.00;99221.45;112735;1240;21957;-79
2023/11/15 09:07:56;;;;;;;9.10;5.50;;;;;;;11.02;100.00;99225.55;112531;1242;21970;-77
2023/11/15 09:10:28;;;;;;;;;;;;;;;10.97;100.00;99232.61;111978;1246;22619;-77
2023/11/15 09:13:08;;;;;;;9.10;6.20;;;;;;;10.82;100.00;99236.45;111777;1247;23739;-78
2023/11/15 09:15:52;;;;;;;11.90;7.80;;;;;;;10.74;100.00;99230.98;111773;1247;23697;-77
2023/11/15 09:18:29;;;;;;;10.30;7.30;;;;;;;10.67;100.00;99232.91;112357;1241;22290;-79
2023/11/15 09:21:09;;;;;;;16.00;10.00;;;;;;;10.61;100.00;99238.85;112444;1241;22002;-80
2023/11/15 09:23:48;;;;;;;8.20;7.30;;;;;;;10.58;100.00;99246.14;112665;1240;21961;-82
2023/11/15 09:26:23;;;;;;;7.40;5.00;;;;;;;10.56;100.00;99251.13;112362;1244;21968;-80
2023/11/15 09:28:54;;;;;;;6.80;4.50;;;;;;;10.54;100.00;99255.73;112898;1238;21969;-79
2023/11/15 09:31:34;;;;;;;7.20;4.30;;;;;;;10.55;100.00;99265.23;112026;1244;23862;-80
2023/11/15 09:34:07;;;;;;;9.80;5.10;;;;;;;10.61;100.00;99266.15;112322;1236;21953;-81
2023/11/15 09:36:39;;;;;;;9.30;5.20;;;;;;;10.65;100.00;99270.79;112297;1244;23699;-80
2023/11/15 09:39:09;;;;;;;8.70;5.40;;;;;;;10.68;100.00;99275.86;112321;1243;22415;-77
2023/11/15 09:41:53;;;;;;;4.20;2.90;;;;;;;10.66;100.00;99281.52;112433;1244;23812;-78
2023/11/15 09:44:25;;;;;;;7.10;3.40;;;;;;;10.64;100.00;99279.58;112336;1241;22007;-78
2023/11/15 09:46:57;;;;;;;7.60;4.00;;;;;;;10.64;100.00;99279.94;111928;1248;23902;-78
2023/11/15 09:49:26;;;;;;;7.20;4.70;;;;;;;10.67;100.00;99278.20;111960;1243;21947;-77
2023/11/15 09:51:56;;;;;;;8.70;4.30;;;;;;;10.70;100.00;99279.23;112131;1244;22019;-77
2023/11/15 09:54:26;;;;;;;6.40;3.30;;;;;;;10.74;100.00;99276.25;111980;1244;23679;-78
2023/11/15 09:56:55;;;;;;;5.60;3.10;;;;;;;10.75;100.00;99278.26;112061;1244;21963;-78
2023/11/15 09:59:23;;;;;;;6.30;2.90;;;;;;;10.75;100.00;99281.92;111908;1244;22992;-79
2023/11/15 10:02:17;;;;;;;4.90;3.80;;;;;;;10.71;100.00;99284.04;111762;1248;22980;-78
2023/11/15 10:05:36;;;;;;;6.60;4.20;;;;;;;10.67;100.00;99288.09;112028;1244;23821;-81
2023/11/15 10:09:05;;;;;;;6.60;4.10;;;;;;;10.66;100.00;99293.02;112329;1244;21949;-80
2023/11/15 10:11:48;;;;;;;8.00;3.80;;;;;;;10.61;100.00;99298.51;112749;1239;21949;-82
2023/11/15 10:14:29;;;;;;;8.90;4.60;;;;;;;10.66;100.00;99300.00;112980;1239;22008;-81
2023/11/15 10:17:06;;;;;;;6.20;4.20;;;;;;;10.70;100.00;99312.98;112477;1230;21943;-77
2023/11/15 10:19:38;;;;;;;7.00;3.20;;;;;;;10.68;100.00;99315.66;112922;1234;23683;-77
2023/11/15 10:22:14;;;;;;;4.10;2.40;;;;;;;10.65;100.00;99318.31;113456;1234;21943;-79
2023/11/15 10:24:48;;;;;;;4.00;2.60;;;;;;;10.53;100.00;99324.51;113377;1234;22753;-78
2023/11/15 10:27:19;;;;;;;3.80;2.40;;;;;;;10.39;100.00;99331.15;112717;1239;23050;-78
2023/11/15 10:29:52;;;;;;;4.50;2.80;;;;;;;10.25;100.00;99337.42;112509;1232;23029;-77
2023/11/15 10:32:21;;;;;;;9.20;6.30;;;;;;;10.18;100.00;99345.11;112140;1244;23102;-79
2023/11/15 10:34:53;;;;;;;7.30;5.00;;;;;;;10.09;100.00;99344.55;112310;1244;21948;-78
2023/11/15 10:37:25;;;;;;;5.90;4.10;;;;;;;9.95;100.00;99351.84;111772;1249;22448;-80
2023/11/15 10:39:57;;;;;;;;;;;;;;;9.81;100.00;99355.16;111149;1256;21961;-78
2023/11/15 10:42:31;;;;;;;8.60;3.90;;;;;;;9.63;100.00;99358.68;110906;1260;21986;-79
2023/11/15 10:45:08;;;;;;;5.20;3.30;;;;;;;9.56;100.00;99362.83;111218;1255;21966;-81
2023/11/15 10:47:49;;;;;;;6.30;3.30;;;;;;;9.54;100.00;99360.35;111459;1252;21970;-79
2023/11/15 10:50:27;;;;;;;4.00;2.90;;;;;;;9.50;100.00;99356.17;111424;1255;22059;-80
2023/11/15 10:53:00;;;;;;;4.20;3.00;;;;;;;9.47;100.00;99358.42;111546;1255;21986;-78
2023/11/15 10:55:48;;;;;;;5.40;3.40;;;;;;;9.44;100.00;99359.28;111396;1249;22976;-79
2023/11/15 10:59:12;;;;;;;4.80;3.30;;;;;;;9.34;100.00;99361.63;112271;1245;22196;-80
2023/11/15 11:01:56;;;;;;;6.10;3.30;;;;;;;9.30;100.00;99364.08;112015;1246;23153;-78
2023/11/15 11:04:32;;;;;;;4.10;2.50;;;;;;;9.29;100.00;99367.61;111911;1246;21951;-80
2023/11/15 11:07:23;;;;;;;5.00;3.20;;;;;;;9.31;100.00;99366.13;111675;1246;21962;-78
2023/11/15 11:10:13;;;;;;;4.70;3.00;;;;;;;9.33;100.00;99368.83;112925;1240;22441;-77
2023/11/15 11:12:42;;;;;;;6.30;3.00;;;;;;;9.37;100.00;99372.95;112334;1240;23662;-79
2023/11/15 11:15:32;;;;;;;4.90;3.40;;;;;;;9.44;100.00;99379.61;111973;1245;23582;-79
2023/11/15 11:18:03;;;;;;;;;;;;;;;9.49;100.00;99384.22;111568;1251;22117;-78
2023/11/15 11:20:37;;;;;;;5.20;3.90;;;;;;;9.40;100.00;99386.71;111482;1250;23512;-78
2023/11/15 11:23:19;;;;;;;7.40;4.30;;;;;;;9.40;100.00;99394.88;111346;1250;21955;-77
2023/11/15 11:25:52;;;;;;;6.20;5.60;;;;;;;9.41;100.00;99400.73;111493;1250;22752;-79
2023/11/15 11:28:23;;;;;;;9.00;5.40;;;;;;;9.43;100.00;99407.61;111215;1255;23718;-79
2023/11/15 11:31:17;;;;;;;7.30;5.60;;;;;;;9.39;100.00;99402.56;111087;1255;23749;-79
2023/11/15 11:34:14;;;;;;;10.10;8.00;;;;;;;9.42;100.00;99409.55;111177;1252;21966;-78
2023/11/15 11:36:53;;;;;;;7.50;6.70;;;;;;;9.41;100.00;99413.75;111463;1249;21965;-78
2023/11/15 11:39:46;;;;;;;6.00;5.30;;;;;;;9.45;100.00;99415.48;111847;1244;23752;-78
2023/11/15 11:42:31;;;;;;;9.50;8.60;;;;;;;9.53;100.00;99419.27;112273;1243;23023;-79
2023/11/15 11:45:09;;;;;;;6.40;5.80;;;;;;;9.59;100.00;99418.44;112276;1244;23153;-82
2023/11/15 11:47:46;;;;;;;6.10;5.40;;;;;;;9.66;100.00;99424.39;112517;1239;21937;-79
2023/11/15 11:50:25;;;;;;;6.20;4.30;;;;;;;9.70;100.00;99430.27;112963;1239;22071;-82
2023/11/15 11:52:59;;;;;;;5.20;4.70;;;;;;;9.72;100.00;99429.08;113062;1239;21901;-82
2023/11/15 11:55:35;;;;;;;6.20;5.60;;;;;;;9.76;100.00;99435.52;113410;1234;21929;-79
2023/11/15 11:58:15;;;;;;;39.30;35.20;;;;;;;9.80;100.00;99440.70;113227;1234;22544;-78
2023/11/15 12:00:44;;;;;;;6.60;5.60;;;;;;;9.83;100.00;99446.30;113408;1234;21954;-77
2023/11/15 12:03:16;;;;;;;6.10;5.40;;;;;;;9.82;100.00;99451.37;113379;1234;21935;-76